sensor_id;sensor_type;location;lat;lon;timestamp;pressure;altitude;pressure_sealevel;temperature;humidity
64889;BME280;51386;53.082;8.816;2023-02-15T00:01:44;102912.84;;;10.58;58.21
64889;BME280;51386;53.082;8.816;2023-02-15T00:04:14;102913.47;;;10.50;58.45
64889;BME280;51386;53.082;8.816;2023-02-15T00:06:42;102914.78;;;10.45;58.90
64889;BME280;51386;53.082;8.816;2023-02-15T00:09:10;102915.84;;;10.42;58.52
64889;BME280;51386;53.082;8.816;2023-02-15T00:11:38;102909.16;;;10.38;58.99
64889;BME280;51386;53.082;8.816;2023-02-15T00:14:12;102914.41;;;10.38;58.47
64889;BME280;51386;53.082;8.816;2023-02-15T00:16:41;102907.25;;;10.40;58.74
64889;BME280;51386;53.082;8.816;2023-02-15T00:19:12;102901.25;;;10.38;58.70
64889;BME280;51386;53.082;8.816;2023-02-15T00:21:40;102904.13;;;10.35;58.45
64889;BME280;51386;53.082;8.816;2023-02-15T00:24:09;102907.69;;;10.34;58.51
64889;BME280;51386;53.082;8.816;2023-02-15T00:26:38;102908.53;;;10.35;58.88
64889;BME280;51386;53.082;8.816;2023-02-15T00:29:06;102914.88;;;10.32;58.89
64889;BME280;51386;53.082;8.816;2023-02-15T00:31:34;102911.53;;;10.30;58.34
64889;BME280;51386;53.082;8.816;2023-02-15T00:34:03;102914.06;;;10.32;58.96
64889;BME280;51386;53.082;8.816;2023-02-15T00:36:32;102908.06;;;10.30;59.07
64889;BME280;51386;53.082;8.816;2023-02-15T00:38:59;102899.34;;;10.29;59.59
64889;BME280;51386;53.082;8.816;2023-02-15T00:41:26;102900.16;;;10.30;59.43
64889;BME280;51386;53.082;8.816;2023-02-15T00:43:53;102901.72;;;10.32;59.25
64889;BME280;51386;53.082;8.816;2023-02-15T00:46:20;102888.34;;;10.35;59.23
64889;BME280;51386;53.082;8.816;2023-02-15T00:48:47;102891.69;;;10.37;59.06
64889;BME280;51386;53.082;8.816;2023-02-15T00:51:14;102885.69;;;10.35;59.12
64889;BME280;51386;53.082;8.816;2023-02-15T00:53:43;102881.63;;;10.31;58.36
64889;BME280;51386;53.082;8.816;2023-02-15T00:56:11;102877.91;;;10.23;58.67
64889;BME280;51386;53.082;8.816;2023-02-15T00:58:38;102875.47;;;10.08;58.50
64889;BME280;51386;53.082;8.816;2023-02-15T01:01:08;102879.19;;;9.95;58.87
64889;BME280;51386;53.082;8.816;2023-02-15T01:03:35;102871.72;;;9.78;59.27
64889;BME280;51386;53.082;8.816;2023-02-15T01:06:04;102876.00;;;9.68;59.80
64889;BME280;51386;53.082;8.816;2023-02-15T01:08:31;102878.63;;;9.57;60.13
64889;BME280;51386;53.082;8.816;2023-02-15T01:11:05;102874.91;;;9.48;60.02
64889;BME280;51386;53.082;8.816;2023-02-15T01:13:32;102872.50;;;9.45;60.08
64889;BME280;51386;53.082;8.816;2023-02-15T01:15:59;102869.25;;;9.41;60.27
64889;BME280;51386;53.082;8.816;2023-02-15T01:18:27;102872.84;;;9.40;60.29
64889;BME280;51386;53.082;8.816;2023-02-15T01:20:56;102872.63;;;9.43;60.09
64889;BME280;51386;53.082;8.816;2023-02-15T01:23:24;102864.94;;;9.40;59.75
64889;BME280;51386;53.082;8.816;2023-02-15T01:25:50;102864.44;;;9.35;59.74
64889;BME280;51386;53.082;8.816;2023-02-15T01:28:19;102871.34;;;9.25;59.35
64889;BME280;51386;53.082;8.816;2023-02-15T01:30:46;102859.44;;;9.09;59.83
64889;BME280;51386;53.082;8.816;2023-02-15T01:33:13;102854.75;;;9.01;60.05
64889;BME280;51386;53.082;8.816;2023-02-15T01:35:45;102855.59;;;9.02;60.50
64889;BME280;51386;53.082;8.816;2023-02-15T01:38:14;102854.31;;;9.07;61.07
64889;BME280;51386;53.082;8.816;2023-02-15T01:40:41;102851.94;;;9.15;60.91
64889;BME280;51386;53.082;8.816;2023-02-15T01:43:11;102851.28;;;9.24;60.94
64889;BME280;51386;53.082;8.816;2023-02-15T01:45:39;102847.81;;;9.24;60.36
64889;BME280;51386;53.082;8.816;2023-02-15T01:48:22;102839.56;;;9.17;59.77
64889;BME280;51386;53.082;8.816;2023-02-15T01:50:56;102842.53;;;9.13;58.83
64889;BME280;51386;53.082;8.816;2023-02-15T01:53:28;102846.44;;;9.07;59.40
64889;BME280;51386;53.082;8.816;2023-02-15T01:56:03;102841.19;;;9.07;59.39
64889;BME280;51386;53.082;8.816;2023-02-15T01:58:35;102841.91;;;9.09;59.43
64889;BME280;51386;53.082;8.816;2023-02-15T02:01:05;102833.72;;;9.01;58.72
64889;BME280;51386;53.082;8.816;2023-02-15T02:03:43;102831.56;;;8.95;59.09
64889;BME280;51386;53.082;8.816;2023-02-15T02:06:14;102831.78;;;8.92;59.04
64889;BME280;51386;53.082;8.816;2023-02-15T02:08:42;102824.13;;;8.89;58.74
64889;BME280;51386;53.082;8.816;2023-02-15T02:11:10;102832.13;;;8.88;58.89
64889;BME280;51386;53.082;8.816;2023-02-15T02:13:38;102821.63;;;8.88;59.13
64889;BME280;51386;53.082;8.816;2023-02-15T02:16:13;102837.59;;;8.84;58.79
64889;BME280;51386;53.082;8.816;2023-02-15T02:18:59;102826.09;;;8.74;58.30
64889;BME280;51386;53.082;8.816;2023-02-15T02:25:28;102821.97;;;8.47;58.48
64889;BME280;51386;53.082;8.816;2023-02-15T02:28:27;102819.69;;;8.30;58.88
64889;BME280;51386;53.082;8.816;2023-02-15T02:31:40;102804.41;;;8.11;59.73
64889;BME280;51386;53.082;8.816;2023-02-15T02:34:16;102804.31;;;8.12;59.57
64889;BME280;51386;53.082;8.816;2023-02-15T02:36:55;102810.69;;;8.08;59.59
64889;BME280;51386;53.082;8.816;2023-02-15T02:39:37;102811.22;;;8.13;59.80
64889;BME280;51386;53.082;8.816;2023-02-15T02:42:12;102814.47;;;8.17;59.15
64889;BME280;51386;53.082;8.816;2023-02-15T02:44:43;102806.94;;;8.12;59.26
64889;BME280;51386;53.082;8.816;2023-02-15T02:47:17;102800.19;;;8.08;59.33
64889;BME280;51386;53.082;8.816;2023-02-15T02:49:47;102796.66;;;8.09;59.53
64889;BME280;51386;53.082;8.816;2023-02-15T02:52:40;102791.94;;;8.02;58.98
64889;BME280;51386;53.082;8.816;2023-02-15T02:55:15;102802.94;;;7.94;58.99
64889;BME280;51386;53.082;8.816;2023-02-15T02:57:54;102796.47;;;7.87;59.23
64889;BME280;51386;53.082;8.816;2023-02-15T03:00:24;102803.59;;;7.85;59.57
64889;BME280;51386;53.082;8.816;2023-02-15T03:03:00;102796.97;;;7.92;60.01
64889;BME280;51386;53.082;8.816;2023-02-15T03:05:46;102794.66;;;8.00;59.59
64889;BME280;51386;53.082;8.816;2023-02-15T03:08:18;102796.97;;;8.05;59.27
64889;BME280;51386;53.082;8.816;2023-02-15T03:10:52;102795.81;;;8.09;59.46
64889;BME280;51386;53.082;8.816;2023-02-15T03:13:20;102790.97;;;8.15;59.54
64889;BME280;51386;53.082;8.816;2023-02-15T03:15:51;102787.91;;;8.22;59.09
64889;BME280;51386;53.082;8.816;2023-02-15T03:18:43;102780.59;;;8.27;59.05
64889;BME280;51386;53.082;8.816;2023-02-15T03:21:14;102783.81;;;8.30;58.59
64889;BME280;51386;53.082;8.816;2023-02-15T03:23:54;102779.84;;;8.25;58.14
64889;BME280;51386;53.082;8.816;2023-02-15T03:26:26;102771.00;;;8.26;58.63
64889;BME280;51386;53.082;8.816;2023-02-15T03:28:57;102767.47;;;8.27;58.50
64889;BME280;51386;53.082;8.816;2023-02-15T03:31:28;102771.00;;;8.26;58.12
64889;BME280;51386;53.082;8.816;2023-02-15T03:34:03;102771.88;;;8.13;57.43
64889;BME280;51386;53.082;8.816;2023-02-15T03:36:42;102774.03;;;7.96;57.74
64889;BME280;51386;53.082;8.816;2023-02-15T03:39:19;102770.69;;;7.81;57.64
64889;BME280;51386;53.082;8.816;2023-02-15T03:41:55;102775.59;;;7.73;58.02
64889;BME280;51386;53.082;8.816;2023-02-15T03:44:30;102770.81;;;7.67;58.22
64889;BME280;51386;53.082;8.816;2023-02-15T03:47:05;102777.81;;;7.54;58.52
64889;BME280;51386;53.082;8.816;2023-02-15T03:49:42;102774.97;;;7.44;58.55
64889;BME280;51386;53.082;8.816;2023-02-15T03:52:15;102778.88;;;7.39;58.38
64889;BME280;51386;53.082;8.816;2023-02-15T03:54:44;102773.78;;;7.23;58.91
64889;BME280;51386;53.082;8.816;2023-02-15T03:57:19;102776.19;;;7.14;58.45
64889;BME280;51386;53.082;8.816;2023-02-15T04:00:13;102768.88;;;7.19;59.65
64889;BME280;51386;53.082;8.816;2023-02-15T04:03:22;102782.38;;;7.13;58.71
64889;BME280;51386;53.082;8.816;2023-02-15T04:05:50;102770.22;;;7.12;58.73
64889;BME280;51386;53.082;8.816;2023-02-15T04:08:18;102771.91;;;7.13;59.67
64889;BME280;51386;53.082;8.816;2023-02-15T04:10:45;102766.97;;;7.21;60.14
64889;BME280;51386;53.082;8.816;2023-02-15T04:13:31;102768.78;;;7.33;60.22
64889;BME280;51386;53.082;8.816;2023-02-15T04:15:58;102767.22;;;7.43;58.75
64889;BME280;51386;53.082;8.816;2023-02-15T04:18:35;102750.59;;;7.44;59.19
64889;BME280;51386;53.082;8.816;2023-02-15T04:21:22;102747.19;;;7.42;58.11
64889;BME280;51386;53.082;8.816;2023-02-15T04:24:11;102753.06;;;7.33;58.70
64889;BME280;51386;53.082;8.816;2023-02-15T04:26:58;102749.31;;;7.24;58.69
64889;BME280;51386;53.082;8.816;2023-02-15T04:29:27;102748.47;;;7.24;58.43
64889;BME280;51386;53.082;8.816;2023-02-15T04:31:58;102741.13;;;7.16;58.93
64889;BME280;51386;53.082;8.816;2023-02-15T04:34:25;102744.56;;;7.17;58.88
64889;BME280;51386;53.082;8.816;2023-02-15T04:36:53;102748.66;;;7.21;59.17
64889;BME280;51386;53.082;8.816;2023-02-15T04:39:21;102748.25;;;7.27;58.61
64889;BME280;51386;53.082;8.816;2023-02-15T04:41:48;102741.34;;;7.26;58.91
64889;BME280;51386;53.082;8.816;2023-02-15T04:44:15;102739.66;;;7.25;58.48
64889;BME280;51386;53.082;8.816;2023-02-15T04:46:42;102741.75;;;7.20;58.98
64889;BME280;51386;53.082;8.816;2023-02-15T04:49:09;102734.63;;;7.22;58.98
64889;BME280;51386;53.082;8.816;2023-02-15T04:51:36;102735.06;;;7.28;58.89
64889;BME280;51386;53.082;8.816;2023-02-15T04:54:03;102727.84;;;7.32;59.28
64889;BME280;51386;53.082;8.816;2023-02-15T04:56:32;102730.03;;;7.38;59.10
64889;BME280;51386;53.082;8.816;2023-02-15T04:59:01;102724.16;;;7.47;59.54
64889;BME280;51386;53.082;8.816;2023-02-15T05:01:27;102722.78;;;7.54;58.77
64889;BME280;51386;53.082;8.816;2023-02-15T05:03:54;102721.66;;;7.58;58.61
64889;BME280;51386;53.082;8.816;2023-02-15T05:06:22;102723.44;;;7.58;58.30
64889;BME280;51386;53.082;8.816;2023-02-15T05:08:49;102719.97;;;7.57;57.89
64889;BME280;51386;53.082;8.816;2023-02-15T05:11:17;102723.50;;;7.56;57.96
64889;BME280;51386;53.082;8.816;2023-02-15T05:13:45;102719.31;;;7.53;58.26
64889;BME280;51386;53.082;8.816;2023-02-15T05:16:12;102714.94;;;7.54;58.31
64889;BME280;51386;53.082;8.816;2023-02-15T05:18:40;102713.47;;;7.63;58.89
64889;BME280;51386;53.082;8.816;2023-02-15T05:21:07;102714.72;;;7.70;58.16
64889;BME280;51386;53.082;8.816;2023-02-15T05:23:34;102720.47;;;7.75;58.01
64889;BME280;51386;53.082;8.816;2023-02-15T05:26:02;102718.66;;;7.75;57.80
64889;BME280;51386;53.082;8.816;2023-02-15T05:28:48;102714.41;;;7.74;58.36
64889;BME280;51386;53.082;8.816;2023-02-15T05:31:18;102718.91;;;7.72;57.78
64889;BME280;51386;53.082;8.816;2023-02-15T05:33:46;102719.84;;;7.71;57.59
64889;BME280;51386;53.082;8.816;2023-02-15T05:36:13;102720.78;;;7.70;57.59
64889;BME280;51386;53.082;8.816;2023-02-15T05:38:40;102713.88;;;7.69;57.57
64889;BME280;51386;53.082;8.816;2023-02-15T05:41:10;102714.81;;;7.68;57.46
64889;BME280;51386;53.082;8.816;2023-02-15T05:43:38;102707.91;;;7.67;58.05
64889;BME280;51386;53.082;8.816;2023-02-15T05:46:07;102707.66;;;7.70;57.98
64889;BME280;51386;53.082;8.816;2023-02-15T05:48:35;102704.00;;;7.73;57.76
64889;BME280;51386;53.082;8.816;2023-02-15T05:51:06;102699.94;;;7.69;57.03
64889;BME280;51386;53.082;8.816;2023-02-15T05:53:36;102695.22;;;7.61;57.14
64889;BME280;51386;53.082;8.816;2023-02-15T05:56:04;102693.97;;;7.54;56.93
64889;BME280;51386;53.082;8.816;2023-02-15T05:58:34;102690.00;;;7.48;57.93
64889;BME280;51386;53.082;8.816;2023-02-15T06:01:09;102689.38;;;7.45;57.20
64889;BME280;51386;53.082;8.816;2023-02-15T06:03:37;102684.44;;;7.40;57.04
64889;BME280;51386;53.082;8.816;2023-02-15T06:06:04;102682.03;;;7.37;57.84
64889;BME280;51386;53.082;8.816;2023-02-15T06:08:32;102681.19;;;7.37;57.62
64889;BME280;51386;53.082;8.816;2023-02-15T06:10:59;102685.19;;;7.30;56.67
64889;BME280;51386;53.082;8.816;2023-02-15T06:13:27;102685.81;;;7.21;56.97
64889;BME280;51386;53.082;8.816;2023-02-15T06:15:54;102686.25;;;7.15;57.61
64889;BME280;51386;53.082;8.816;2023-02-15T06:18:23;102690.22;;;7.08;57.56
64889;BME280;51386;53.082;8.816;2023-02-15T06:20:50;102687.25;;;7.00;57.18
64889;BME280;51386;53.082;8.816;2023-02-15T06:23:17;102690.00;;;6.98;58.38
64889;BME280;51386;53.082;8.816;2023-02-15T06:25:45;102690.72;;;7.00;57.84
64889;BME280;51386;53.082;8.816;2023-02-15T06:28:13;102674.91;;;7.02;59.08
64889;BME280;51386;53.082;8.816;2023-02-15T06:30:40;102681.63;;;7.06;58.45
64889;BME280;51386;53.082;8.816;2023-02-15T06:33:07;102674.50;;;7.08;58.11
64889;BME280;51386;53.082;8.816;2023-02-15T06:35:35;102673.56;;;7.09;58.33
64889;BME280;51386;53.082;8.816;2023-02-15T06:38:03;102680.88;;;7.04;57.44
64889;BME280;51386;53.082;8.816;2023-02-15T06:40:30;102679.34;;;7.01;57.78
64889;BME280;51386;53.082;8.816;2023-02-15T06:42:57;102689.16;;;6.98;57.41
64889;BME280;51386;53.082;8.816;2023-02-15T06:45:24;102688.50;;;6.94;57.36
64889;BME280;51386;53.082;8.816;2023-02-15T06:47:51;102682.66;;;6.91;57.72
64889;BME280;51386;53.082;8.816;2023-02-15T06:50:18;102682.66;;;6.91;58.06
64889;BME280;51386;53.082;8.816;2023-02-15T06:52:46;102689.97;;;6.86;57.33
64889;BME280;51386;53.082;8.816;2023-02-15T06:55:13;102675.44;;;6.81;57.97
64889;BME280;51386;53.082;8.816;2023-02-15T06:57:40;102685.88;;;6.81;58.11
64889;BME280;51386;53.082;8.816;2023-02-15T07:00:09;102694.13;;;6.75;58.01
64889;BME280;51386;53.082;8.816;2023-02-15T07:02:36;102692.97;;;6.67;58.00
64889;BME280;51386;53.082;8.816;2023-02-15T07:05:03;102688.59;;;6.67;58.57
64889;BME280;51386;53.082;8.816;2023-02-15T07:07:31;102685.34;;;6.76;59.43
64889;BME280;51386;53.082;8.816;2023-02-15T07:10:00;102685.59;;;6.86;58.76
64889;BME280;51386;53.082;8.816;2023-02-15T07:12:27;102676.50;;;6.92;57.93
64889;BME280;51386;53.082;8.816;2023-02-15T07:15:12;102667.69;;;6.93;59.00
64889;BME280;51386;53.082;8.816;2023-02-15T07:17:39;102670.72;;;6.99;58.20
64889;BME280;51386;53.082;8.816;2023-02-15T07:20:10;102680.88;;;7.04;58.37
64889;BME280;51386;53.082;8.816;2023-02-15T07:22:38;102677.31;;;7.05;57.97
64889;BME280;51386;53.082;8.816;2023-02-15T07:25:09;102678.50;;;7.01;57.10
64889;BME280;51386;53.082;8.816;2023-02-15T07:27:38;102685.81;;;6.96;56.85
64889;BME280;51386;53.082;8.816;2023-02-15T07:30:08;102668.66;;;6.92;57.67
64889;BME280;51386;53.082;8.816;2023-02-15T07:32:36;102673.44;;;6.98;58.24
64889;BME280;51386;53.082;8.816;2023-02-15T07:35:04;102661.94;;;7.13;58.06
64889;BME280;51386;53.082;8.816;2023-02-15T07:37:31;102663.19;;;7.32;58.23
64889;BME280;51386;53.082;8.816;2023-02-15T07:39:57;102655.84;;;7.50;57.44
64889;BME280;51386;53.082;8.816;2023-02-15T07:42:26;102657.81;;;7.59;56.54
64889;BME280;51386;53.082;8.816;2023-02-15T07:44:53;102652.03;;;7.54;56.32
64889;BME280;51386;53.082;8.816;2023-02-15T07:47:20;102644.81;;;7.58;56.58
64889;BME280;51386;53.082;8.816;2023-02-15T07:49:46;102652.44;;;7.73;56.81
64889;BME280;51386;53.082;8.816;2023-02-15T07:52:16;102645.25;;;7.88;56.34
64889;BME280;51386;53.082;8.816;2023-02-15T07:54:43;102642.06;;;8.08;56.57
64889;BME280;51386;53.082;8.816;2023-02-15T07:57:10;102642.13;;;8.43;56.44
64889;BME280;51386;53.082;8.816;2023-02-15T07:59:39;102637.25;;;8.84;55.30
64889;BME280;51386;53.082;8.816;2023-02-15T08:02:09;102632.75;;;9.19;54.65
64889;BME280;51386;53.082;8.816;2023-02-15T08:04:36;102634.41;;;9.42;53.86
64889;BME280;51386;53.082;8.816;2023-02-15T08:07:03;102622.09;;;9.54;53.33
64889;BME280;51386;53.082;8.816;2023-02-15T08:09:31;102627.97;;;9.58;52.87
64889;BME280;51386;53.082;8.816;2023-02-15T08:11:57;102629.38;;;9.62;52.08
64889;BME280;51386;53.082;8.816;2023-02-15T08:14:24;102629.13;;;9.65;52.79
64889;BME280;51386;53.082;8.816;2023-02-15T08:16:58;102627.31;;;9.76;52.71
64889;BME280;51386;53.082;8.816;2023-02-15T08:19:31;102625.50;;;9.88;50.90
64889;BME280;51386;53.082;8.816;2023-02-15T08:22:01;102622.84;;;9.99;50.95
64889;BME280;51386;53.082;8.816;2023-02-15T08:24:30;102626.88;;;10.14;50.29
64889;BME280;51386;53.082;8.816;2023-02-15T08:26:58;102629.94;;;10.51;51.21
64889;BME280;51386;53.082;8.816;2023-02-15T08:29:28;102628.25;;;10.81;49.78
64889;BME280;51386;53.082;8.816;2023-02-15T08:31:59;102638.13;;;11.10;48.87
64889;BME280;51386;53.082;8.816;2023-02-15T08:34:31;102631.50;;;11.25;48.42
64889;BME280;51386;53.082;8.816;2023-02-15T08:36:59;102632.13;;;11.38;48.74
64889;BME280;51386;53.082;8.816;2023-02-15T08:39:26;102626.09;;;11.56;48.49
64889;BME280;51386;53.082;8.816;2023-02-15T08:41:53;102628.22;;;11.72;48.03
64889;BME280;51386;53.082;8.816;2023-02-15T08:44:21;102616.75;;;11.92;48.16
64889;BME280;51386;53.082;8.816;2023-02-15T08:46:49;102628.97;;;12.12;47.08
64889;BME280;51386;53.082;8.816;2023-02-15T08:49:20;102617.75;;;12.30;46.74
64889;BME280;51386;53.082;8.816;2023-02-15T08:51:48;102620.81;;;12.44;46.32
64889;BME280;51386;53.082;8.816;2023-02-15T08:54:18;102618.84;;;12.56;45.87
64889;BME280;51386;53.082;8.816;2023-02-15T08:56:46;102615.06;;;12.68;45.48
64889;BME280;51386;53.082;8.816;2023-02-15T08:59:16;102611.72;;;12.75;45.92
64889;BME280;51386;53.082;8.816;2023-02-15T09:01:45;102608.06;;;12.86;45.75
64889;BME280;51386;53.082;8.816;2023-02-15T09:04:13;102609.44;;;13.09;45.63
64889;BME280;51386;53.082;8.816;2023-02-15T09:06:45;102612.97;;;13.27;45.87
64889;BME280;51386;53.082;8.816;2023-02-15T09:09:15;102611.09;;;13.65;44.75
64889;BME280;51386;53.082;8.816;2023-02-15T09:11:45;102607.22;;;14.04;44.47
64889;BME280;51386;53.082;8.816;2023-02-15T09:14:18;102599.59;;;14.36;44.04
64889;BME280;51386;53.082;8.816;2023-02-15T09:16:47;102595.22;;;14.70;42.99
64889;BME280;51386;53.082;8.816;2023-02-15T09:19:18;102596.66;;;15.16;42.56
64889;BME280;51386;53.082;8.816;2023-02-15T09:21:47;102593.03;;;15.67;41.83
64889;BME280;51386;53.082;8.816;2023-02-15T09:24:16;102589.47;;;16.16;41.39
64889;BME280;51386;53.082;8.816;2023-02-15T09:26:49;102583.34;;;16.64;40.45
64889;BME280;51386;53.082;8.816;2023-02-15T09:29:33;102586.00;;;17.27;39.14
64889;BME280;51386;53.082;8.816;2023-02-15T09:32:05;102590.28;;;17.98;38.17
64889;BME280;51386;53.082;8.816;2023-02-15T09:34:34;102585.06;;;18.64;37.24
64889;BME280;51386;53.082;8.816;2023-02-15T09:37:05;102586.31;;;19.20;35.67
64889;BME280;51386;53.082;8.816;2023-02-15T09:39:33;102585.03;;;19.67;35.14
64889;BME280;51386;53.082;8.816;2023-02-15T09:45:28;102593.28;;;20.29;33.36
64889;BME280;51386;53.082;8.816;2023-02-15T09:48:38;102588.13;;;20.06;32.66
64889;BME280;51386;53.082;8.816;2023-02-15T09:54:42;102592.13;;;19.95;33.43
64889;BME280;51386;53.082;8.816;2023-02-15T09:57:25;102580.59;;;19.95;33.29
64889;BME280;51386;53.082;8.816;2023-02-15T10:00:08;102586.66;;;20.03;33.50
64889;BME280;51386;53.082;8.816;2023-02-15T10:02:53;102592.03;;;20.24;32.50
64889;BME280;51386;53.082;8.816;2023-02-15T10:05:39;102582.06;;;20.18;33.37
64889;BME280;51386;53.082;8.816;2023-02-15T10:09:06;102587.69;;;20.23;33.13
64889;BME280;51386;53.082;8.816;2023-02-15T10:12:01;102592.25;;;20.51;32.63
64889;BME280;51386;53.082;8.816;2023-02-15T10:14:56;102582.94;;;20.47;32.34
64889;BME280;51386;53.082;8.816;2023-02-15T10:18:00;102591.66;;;20.28;33.83
64889;BME280;51386;53.082;8.816;2023-02-15T10:20:39;102582.97;;;20.25;33.16
64889;BME280;51386;53.082;8.816;2023-02-15T10:23:27;102584.63;;;20.27;33.20
64889;BME280;51386;53.082;8.816;2023-02-15T10:26:07;102585.50;;;20.34;32.99
64889;BME280;51386;53.082;8.816;2023-02-15T10:28:48;102575.69;;;20.41;32.93
64889;BME280;51386;53.082;8.816;2023-02-15T10:31:24;102574.00;;;20.61;33.28
64889;BME280;51386;53.082;8.816;2023-02-15T10:34:12;102573.63;;;20.98;32.48
64889;BME280;51386;53.082;8.816;2023-02-15T10:37:10;102564.78;;;21.51;31.28
64889;BME280;51386;53.082;8.816;2023-02-15T10:39:54;102571.44;;;21.69;31.40
64889;BME280;51386;53.082;8.816;2023-02-15T10:42:36;102569.81;;;21.81;31.49
64889;BME280;51386;53.082;8.816;2023-02-15T10:45:19;102566.09;;;21.69;30.82
64889;BME280;51386;53.082;8.816;2023-02-15T10:48:16;102571.69;;;21.13;31.32
64889;BME280;51386;53.082;8.816;2023-02-15T10:50:50;102560.56;;;20.82;32.51
64889;BME280;51386;53.082;8.816;2023-02-15T10:53:39;102572.09;;;20.55;32.71
64889;BME280;51386;53.082;8.816;2023-02-15T10:56:17;102568.50;;;20.69;32.77
64889;BME280;51386;53.082;8.816;2023-02-15T10:59:15;102557.53;;;20.91;32.96
64889;BME280;51386;53.082;8.816;2023-02-15T11:01:53;102561.75;;;21.14;32.60
64889;BME280;51386;53.082;8.816;2023-02-15T11:04:54;102566.72;;;21.10;32.62
64889;BME280;51386;53.082;8.816;2023-02-15T11:07:26;102557.41;;;21.06;33.11
64889;BME280;51386;53.082;8.816;2023-02-15T11:10:06;102562.97;;;21.11;32.76
64889;BME280;51386;53.082;8.816;2023-02-15T11:12:34;102556.38;;;21.07;32.96
64889;BME280;51386;53.082;8.816;2023-02-15T11:15:15;102549.94;;;21.02;32.95
64889;BME280;51386;53.082;8.816;2023-02-15T11:17:52;102546.03;;;21.04;32.48
64889;BME280;51386;53.082;8.816;2023-02-15T11:20:29;102551.31;;;20.84;32.96
64889;BME280;51386;53.082;8.816;2023-02-15T11:22:59;102549.75;;;20.69;33.66
64889;BME280;51386;53.082;8.816;2023-02-15T11:25:31;102540.72;;;20.70;33.26
64889;BME280;51386;53.082;8.816;2023-02-15T11:28:00;102534.88;;;20.94;33.41
64889;BME280;51386;53.082;8.816;2023-02-15T11:30:41;102533.56;;;21.18;32.98
64889;BME280;51386;53.082;8.816;2023-02-15T11:33:20;102534.22;;;21.26;33.11
64889;BME280;51386;53.082;8.816;2023-02-15T11:35:55;102524.78;;;21.37;32.97
64889;BME280;51386;53.082;8.816;2023-02-15T11:38:31;102517.78;;;21.42;32.68
64889;BME280;51386;53.082;8.816;2023-02-15T11:41:03;102518.59;;;21.43;33.14
64889;BME280;51386;53.082;8.816;2023-02-15T11:43:37;102515.69;;;21.31;32.85
64889;BME280;51386;53.082;8.816;2023-02-15T11:46:10;102514.63;;;21.32;33.28
64889;BME280;51386;53.082;8.816;2023-02-15T11:48:40;102502.50;;;21.36;32.98
64889;BME280;51386;53.082;8.816;2023-02-15T11:51:14;102497.59;;;21.53;32.64
64889;BME280;51386;53.082;8.816;2023-02-15T11:53:44;102510.00;;;21.74;32.18
64889;BME280;51386;53.082;8.816;2023-02-15T11:56:15;102503.84;;;21.93;32.44
64889;BME280;51386;53.082;8.816;2023-02-15T11:58:47;102498.09;;;22.02;32.40
64889;BME280;51386;53.082;8.816;2023-02-15T12:01:27;102493.53;;;22.16;32.48
64889;BME280;51386;53.082;8.816;2023-02-15T12:04:01;102487.31;;;22.48;32.25
64889;BME280;51386;53.082;8.816;2023-02-15T12:06:35;102479.00;;;22.69;32.02
64889;BME280;51386;53.082;8.816;2023-02-15T12:09:27;102484.19;;;22.58;31.10
64889;BME280;51386;53.082;8.816;2023-02-15T12:12:21;102483.19;;;22.39;31.12
64889;BME280;51386;53.082;8.816;2023-02-15T12:14:53;102480.75;;;22.05;31.99
64889;BME280;51386;53.082;8.816;2023-02-15T12:17:24;102469.59;;;21.82;32.40
64889;BME280;51386;53.082;8.816;2023-02-15T12:19:57;102466.06;;;21.62;32.71
64889;BME280;51386;53.082;8.816;2023-02-15T12:22:29;102461.28;;;21.37;33.28
64889;BME280;51386;53.082;8.816;2023-02-15T12:25:02;102461.03;;;21.19;33.71
64889;BME280;51386;53.082;8.816;2023-02-15T12:27:34;102455.63;;;21.06;33.80
64889;BME280;51386;53.082;8.816;2023-02-15T12:30:06;102451.88;;;20.94;34.06
64889;BME280;51386;53.082;8.816;2023-02-15T12:32:50;102450.34;;;20.72;33.95
64889;BME280;51386;53.082;8.816;2023-02-15T12:35:28;102453.34;;;20.56;34.75
64889;BME280;51386;53.082;8.816;2023-02-15T12:38:00;102446.28;;;20.42;34.84
64889;BME280;51386;53.082;8.816;2023-02-15T12:40:31;102444.22;;;20.44;35.01
64889;BME280;51386;53.082;8.816;2023-02-15T12:42:59;102444.81;;;20.39;35.20
64889;BME280;51386;53.082;8.816;2023-02-15T12:45:28;102430.50;;;20.25;35.20
64889;BME280;51386;53.082;8.816;2023-02-15T12:48:14;102425.22;;;20.04;36.43
64889;BME280;51386;53.082;8.816;2023-02-15T12:50:47;102426.84;;;19.99;35.88
64889;BME280;51386;53.082;8.816;2023-02-15T12:53:35;102430.09;;;19.94;36.58
64889;BME280;51386;53.082;8.816;2023-02-15T12:56:05;102424.81;;;20.07;36.00
64889;BME280;51386;53.082;8.816;2023-02-15T12:58:34;102430.03;;;20.15;35.41
64889;BME280;51386;53.082;8.816;2023-02-15T13:01:13;102424.56;;;20.30;35.73
64889;BME280;51386;53.082;8.816;2023-02-15T13:04:00;102421.16;;;20.43;35.45
64889;BME280;51386;53.082;8.816;2023-02-15T13:06:35;102419.28;;;20.84;34.79
64889;BME280;51386;53.082;8.816;2023-02-15T13:09:13;102422.94;;;21.30;34.45
64889;BME280;51386;53.082;8.816;2023-02-15T13:11:43;102413.69;;;21.79;34.18
64889;BME280;51386;53.082;8.816;2023-02-15T13:14:18;102412.78;;;22.37;33.91
64889;BME280;51386;53.082;8.816;2023-02-15T13:16:48;102414.16;;;22.59;32.61
64889;BME280;51386;53.082;8.816;2023-02-15T13:19:23;102412.63;;;22.83;32.27
64889;BME280;51386;53.082;8.816;2023-02-15T13:21:55;102414.63;;;22.94;31.70
64889;BME280;51386;53.082;8.816;2023-02-15T13:24:28;102406.50;;;22.69;32.04
64889;BME280;51386;53.082;8.816;2023-02-15T13:26:58;102407.66;;;22.29;32.23
64889;BME280;51386;53.082;8.816;2023-02-15T13:29:44;102407.13;;;21.88;32.87
64889;BME280;51386;53.082;8.816;2023-02-15T13:32:28;102398.63;;;21.45;33.65
64889;BME280;51386;53.082;8.816;2023-02-15T13:34:59;102399.84;;;21.16;33.62
64889;BME280;51386;53.082;8.816;2023-02-15T13:37:55;102391.84;;;20.69;34.21